createdAt,value
2019-01-04T00:04:14.644Z,66.70
2019-01-04T00:06:48.246Z,65.42
2019-01-04T00:09:19.463Z,65.00
2019-01-04T00:11:54.261Z,64.85
2019-01-04T00:14:26.742Z,66.89
2019-01-04T00:16:57.508Z,68.26
2019-01-04T00:19:28.799Z,68.79
2019-01-04T00:22:03.539Z,68.19
2019-01-04T00:24:33.755Z,69.22
2019-01-04T00:27:11.104Z,68.25
2019-01-04T00:29:41.987Z,67.34
2019-01-04T00:32:11.914Z,69.92
2019-01-04T00:34:41.874Z,75.42
2019-01-04T00:37:11.975Z,81.66
2019-01-04T00:39:43.401Z,86.68
2019-01-04T00:42:15.053Z,89.76
2019-01-04T00:44:44.863Z,82.46
2019-01-04T00:47:21.482Z,70.01
2019-01-04T00:49:51.487Z,64.83
2019-01-04T00:52:21.676Z,61.40
2019-01-04T00:54:53.729Z,61.84
2019-01-04T00:57:35.524Z,62.89
2019-01-04T01:00:35.322Z,68.27
2019-01-04T01:03:30.643Z,71.15
2019-01-04T01:06:39.943Z,65.26
2019-01-04T01:09:26.123Z,61.34
2019-01-04T01:12:12.596Z,60.45
2019-01-04T01:15:18.768Z,60.63
2019-01-04T01:18:08.034Z,61.41
2019-01-04T01:20:56.796Z,63.15
2019-01-04T01:23:46.341Z,63.86
2019-01-04T01:26:40.444Z,65.82
2019-01-04T01:29:32.977Z,69.43
2019-01-04T01:32:39.552Z,71.48
2019-01-04T01:35:31.876Z,71.92
2019-01-04T01:38:23.005Z,70.74
2019-01-04T01:41:14.259Z,70.12
2019-01-04T01:43:53.255Z,70.80
2019-01-04T01:46:35.978Z,71.10
2019-01-04T01:49:12.668Z,72.13
2019-01-04T01:51:57.331Z,71.10
2019-01-04T01:54:28.315Z,70.84
2019-01-04T01:57:02.872Z,71.38
2019-01-04T01:59:34.311Z,71.32
2019-01-04T02:02:05.877Z,68.96
2019-01-04T02:04:35.829Z,68.81
2019-01-04T02:07:06.554Z,69.30
2019-01-04T02:09:36.465Z,69.13
2019-01-04T02:12:12.114Z,68.38
2019-01-04T02:14:43.532Z,69.34
2019-01-04T02:17:14.778Z,69.57
2019-01-04T02:19:44.951Z,68.95
2019-01-04T02:22:15.619Z,69.98
2019-01-04T02:24:45.477Z,71.91
2019-01-04T02:27:16.991Z,73.13
2019-01-04T02:29:46.905Z,74.32
2019-01-04T02:32:16.724Z,76.69
2019-01-04T02:34:48.299Z,78.36
2019-01-04T02:37:24.282Z,79.25
2019-01-04T02:39:56.688Z,81.54
2019-01-04T02:42:26.595Z,80.58
2019-01-04T02:44:56.442Z,81.80
2019-01-04T02:47:26.200Z,83.05
2019-01-04T02:49:56.180Z,83.56
2019-01-04T02:52:26.204Z,84.76
2019-01-04T02:54:56.109Z,83.71
2019-01-04T02:57:25.934Z,82.32
2019-01-04T02:59:56.107Z,81.23
2019-01-04T03:02:31.645Z,78.49
2019-01-04T03:05:03.564Z,78.60
2019-01-04T03:07:33.352Z,77.65
2019-01-04T03:10:03.395Z,78.82
2019-01-04T03:12:33.621Z,78.36
2019-01-04T03:15:04.352Z,79.23
2019-01-04T03:17:34.276Z,79.10
2019-01-04T03:20:04.703Z,81.42
2019-01-04T03:22:34.610Z,81.14
2019-01-04T03:25:04.859Z,77.43
2019-01-04T03:27:34.745Z,76.41
2019-01-04T03:30:05.718Z,75.63
2019-01-04T03:32:35.620Z,75.71
2019-01-04T03:35:05.720Z,76.34
2019-01-04T03:37:35.835Z,77.65
2019-01-04T03:40:08.569Z,76.57
2019-01-04T03:42:39.649Z,76.86
2019-01-04T03:45:11.517Z,78.04
2019-01-04T03:47:41.613Z,78.44
2019-01-04T03:50:12.596Z,78.55
2019-01-04T03:52:42.762Z,78.16
2019-01-04T03:55:14.052Z,78.14
2019-01-04T03:57:44.195Z,78.60
2019-01-04T04:00:14.395Z,80.15
2019-01-04T04:02:49.016Z,81.20
2019-01-04T04:05:19.964Z,80.49
2019-01-04T04:07:50.050Z,81.84
2019-01-04T04:10:19.970Z,83.18
2019-01-04T04:12:49.794Z,82.04
2019-01-04T04:15:20.341Z,82.28
2019-01-04T04:17:50.297Z,83.45
2019-01-04T04:20:20.179Z,84.11
2019-01-04T04:22:51.355Z,83.84
2019-01-04T04:25:21.492Z,84.58
2019-01-04T04:27:51.886Z,84.67
2019-01-04T04:30:22.910Z,84.58
2019-01-04T04:32:52.817Z,82.38
2019-01-04T04:35:24.170Z,82.36
2019-01-04T04:37:54.182Z,81.84
2019-01-04T04:40:24.839Z,81.12
2019-01-04T04:42:54.667Z,80.26
2019-01-04T04:45:24.548Z,78.89
2019-01-04T04:47:56.376Z,78.17
2019-01-04T04:50:26.348Z,78.55
2019-01-04T04:52:58.416Z,79.81
2019-01-04T04:55:28.317Z,79.79
2019-01-04T04:57:58.739Z,80.55
2019-01-04T05:00:28.950Z,80.92
2019-01-04T05:03:03.082Z,80.92
2019-01-04T05:05:33.736Z,79.97
2019-01-04T05:08:03.606Z,80.96
2019-01-04T05:10:34.529Z,81.56
2019-01-04T05:13:07.545Z,81.94
2019-01-04T05:15:51.433Z,81.26
2019-01-04T05:18:30.443Z,78.80
2019-01-04T05:21:03.826Z,79.58
2019-01-04T05:23:42.614Z,78.84
2019-01-04T05:26:30.799Z,79.27
2019-01-04T05:29:04.235Z,79.44
2019-01-04T05:31:42.551Z,83.65
2019-01-04T05:34:13.295Z,85.56
2019-01-04T05:36:48.100Z,85.41
2019-01-04T05:39:19.391Z,85.24
2019-01-04T05:41:56.679Z,84.26
2019-01-04T05:44:29.676Z,82.77
2019-01-04T05:47:09.244Z,83.04
2019-01-04T05:49:39.753Z,83.18
2019-01-04T05:52:13.871Z,84.18
2019-01-04T05:54:46.141Z,85.99
2019-01-04T05:57:16.667Z,88.13
2019-01-04T05:59:46.580Z,89.01
2019-01-04T06:02:20.898Z,89.23
2019-01-04T06:04:50.904Z,87.29
2019-01-04T06:07:26.204Z,85.62
2019-01-04T06:09:58.063Z,85.15
2019-01-04T06:12:29.498Z,86.75
2019-01-04T06:14:59.279Z,87.81
2019-01-04T06:17:29.920Z,89.32
2019-01-04T06:20:00.267Z,89.95
2019-01-04T06:22:35.309Z,90.31
2019-01-04T06:25:06.827Z,90.66
2019-01-04T06:27:36.747Z,91.59
2019-01-04T06:30:10.229Z,90.47
2019-01-04T06:32:40.883Z,88.51
2019-01-04T06:35:13.862Z,91.01
2019-01-04T06:37:44.220Z,91.22
2019-01-04T06:40:17.485Z,91.10
2019-01-04T06:42:47.555Z,90.65
2019-01-04T06:45:19.477Z,90.46
2019-01-04T06:47:50.939Z,90.23
2019-01-04T06:50:20.742Z,90.40
2019-01-04T06:52:50.621Z,91.58
2019-01-04T06:55:23.338Z,90.60
2019-01-04T06:57:55.904Z,90.75
2019-01-04T07:00:25.743Z,91.88
2019-01-04T07:02:59.674Z,91.79
2019-01-04T07:05:29.548Z,89.06
2019-01-04T07:07:59.336Z,84.64
2019-01-04T07:10:29.108Z,81.83
2019-01-04T07:12:59.595Z,78.92
2019-01-04T07:15:29.535Z,77.47
2019-01-04T07:17:59.407Z,75.47
2019-01-04T07:20:29.243Z,74.84
2019-01-04T07:23:00.208Z,71.79
2019-01-04T07:25:30.242Z,70.59
2019-01-04T07:28:00.001Z,68.43
2019-01-04T07:30:29.764Z,67.92
2019-01-04T07:32:59.804Z,68.09
2019-01-04T07:35:29.763Z,65.34
2019-01-04T07:38:00.135Z,64.14
2019-01-04T07:40:30.046Z,63.76
2019-01-04T07:42:59.915Z,64.23
2019-01-04T07:45:29.692Z,63.27
2019-01-04T07:47:59.523Z,61.81
2019-01-04T07:50:29.354Z,60.64
2019-01-04T07:52:59.121Z,60.04
2019-01-04T07:55:28.984Z,60.04
2019-01-04T07:57:59.006Z,60.34
2019-01-04T08:00:29.016Z,59.38
2019-01-04T08:02:58.786Z,59.38
2019-01-04T08:05:28.403Z,59.11
2019-01-04T08:07:58.466Z,58.08
2019-01-04T08:10:29.811Z,58.11
2019-01-04T08:13:01.448Z,57.75
2019-01-04T08:15:31.389Z,57.47
2019-01-04T08:18:01.195Z,58.25
2019-01-04T08:20:31.122Z,59.95
2019-01-04T08:23:01.181Z,59.95
2019-01-04T08:25:31.064Z,57.22
2019-01-04T08:28:00.829Z,57.22
2019-01-04T08:30:30.642Z,55.88
2019-01-04T08:33:00.593Z,56.49
2019-01-04T08:35:30.517Z,57.16
2019-01-04T08:38:00.552Z,57.16
2019-01-04T08:40:30.432Z,56.01
2019-01-04T08:43:00.511Z,54.94
2019-01-04T08:45:30.376Z,54.61
2019-01-04T08:48:01.993Z,54.72
2019-01-04T08:50:31.800Z,55.09
2019-01-04T08:53:01.855Z,55.13
2019-01-04T08:55:31.680Z,55.60
2019-01-04T08:58:01.448Z,55.72
2019-01-04T09:00:33.138Z,55.24
2019-01-04T09:03:09.531Z,55.63
2019-01-04T09:05:42.011Z,53.38
2019-01-04T09:08:11.815Z,54.63
2019-01-04T09:10:41.912Z,52.31
2019-01-04T09:13:11.894Z,52.03
2019-01-04T09:15:41.771Z,51.75
2019-01-04T09:18:11.875Z,49.30
2019-01-04T09:20:41.690Z,50.34
2019-01-04T09:23:11.948Z,49.55
2019-01-04T09:25:43.646Z,50.58
2019-01-04T09:28:17.998Z,49.51
2019-01-04T09:30:46.001Z,49.43
2019-01-04T09:33:19.500Z,49.76
2019-01-04T09:35:49.852Z,48.33
2019-01-04T09:38:19.902Z,47.72
2019-01-04T09:40:52.908Z,47.90
2019-01-04T09:43:23.283Z,46.04
2019-01-04T09:45:55.053Z,45.93
2019-01-04T09:48:25.134Z,47.70
2019-01-04T09:50:55.150Z,46.82
2019-01-04T09:53:26.697Z,44.94
2019-01-04T09:55:56.558Z,45.23
2019-01-04T09:58:26.399Z,48.69
2019-01-04T10:00:57.310Z,48.16
2019-01-04T10:03:32.862Z,47.26
2019-01-04T10:06:03.619Z,47.21
2019-01-04T10:08:33.480Z,48.06
2019-01-04T10:11:03.512Z,47.75
2019-01-04T10:13:33.312Z,47.34
2019-01-04T10:16:03.271Z,46.44
2019-01-04T10:18:33.118Z,47.36
2019-01-04T10:21:03.002Z,46.07
2019-01-04T10:23:33.752Z,46.18
2019-01-04T10:26:03.549Z,45.70
2019-01-04T10:28:34.633Z,45.61
2019-01-04T10:31:05.401Z,48.54
2019-01-04T10:33:35.245Z,46.42
2019-01-04T10:36:05.471Z,45.76
2019-01-04T10:38:35.377Z,45.03
2019-01-04T10:41:06.764Z,47.53
2019-01-04T10:43:36.710Z,49.67
2019-01-04T10:46:08.641Z,54.42
2019-01-04T10:48:38.546Z,56.85
2019-01-04T10:51:08.317Z,55.53
2019-01-04T10:53:38.382Z,53.09
2019-01-04T10:56:08.247Z,53.31
2019-01-04T10:58:38.423Z,53.46
2019-01-04T11:01:08.328Z,54.19
2019-01-04T11:03:41.795Z,52.13
2019-01-04T11:06:16.308Z,53.45
2019-01-04T11:08:46.375Z,55.40
2019-01-04T11:11:16.505Z,55.40
2019-01-04T11:13:46.395Z,57.09
2019-01-04T11:16:16.712Z,57.49
2019-01-04T11:18:48.094Z,56.64
2019-01-04T11:21:20.694Z,56.66
2019-01-04T11:24:13.210Z,57.99
2019-01-04T11:26:49.356Z,57.99
2019-01-04T11:29:37.532Z,56.55
2019-01-04T11:32:25.466Z,56.14
2019-01-04T11:35:18.099Z,52.48
2019-01-04T11:37:59.795Z,54.01
2019-01-04T11:40:50.125Z,54.01
2019-01-04T11:43:41.989Z,56.23
2019-01-04T11:46:17.671Z,56.40
2019-01-04T11:48:56.503Z,56.40
2019-01-04T11:51:29.754Z,51.42
2019-01-04T11:54:01.595Z,51.42
2019-01-04T11:56:36.958Z,54.38
2019-01-04T11:59:09.563Z,54.38
2019-01-04T12:01:40.172Z,53.67
2019-01-04T12:04:10.049Z,53.68
2019-01-04T12:06:43.468Z,53.22
2019-01-04T12:09:14.468Z,53.22
2019-01-04T12:11:46.802Z,53.52
2019-01-04T12:14:17.756Z,52.71
2019-01-04T12:16:54.475Z,49.35
2019-01-04T12:19:25.567Z,47.16
2019-01-04T12:21:59.736Z,45.21
2019-01-04T12:24:30.446Z,46.35
2019-01-04T12:27:04.425Z,49.22
2019-01-04T12:29:34.987Z,50.63
2019-01-04T12:32:09.630Z,51.31
2019-01-04T12:34:41.133Z,52.14
2019-01-04T12:37:16.323Z,53.15
2019-01-04T12:39:47.456Z,51.36
2019-01-04T12:42:17.226Z,48.99
2019-01-04T12:44:47.283Z,46.20
2019-01-04T12:47:18.558Z,45.44
2019-01-04T12:49:48.415Z,45.14
2019-01-04T12:52:20.891Z,45.95
2019-01-04T12:54:51.687Z,48.07
2019-01-04T12:57:21.742Z,49.27
2019-01-04T12:59:58.934Z,50.01
2019-01-04T13:02:33.716Z,48.13
2019-01-04T13:05:05.638Z,46.38
2019-01-04T13:07:37.874Z,48.68
2019-01-04T13:10:17.016Z,48.68
2019-01-04T13:12:47.407Z,48.48
2019-01-04T13:15:24.570Z,48.16
2019-01-04T13:17:56.117Z,50.57
2019-01-04T13:20:28.002Z,49.19
2019-01-04T13:22:59.788Z,49.24
2019-01-04T13:25:31.718Z,48.37
2019-01-04T13:28:02.681Z,48.24
2019-01-04T13:30:32.790Z,47.06
2019-01-04T13:33:02.959Z,47.85
2019-01-04T13:35:33.384Z,52.62
2019-01-04T13:38:03.450Z,51.77
2019-01-04T13:40:33.880Z,49.49
2019-01-04T13:43:07.221Z,46.38
2019-01-04T13:49:03.871Z,45.86
2019-01-04T13:51:35.899Z,45.65
2019-01-04T13:54:08.186Z,44.32
2019-01-04T13:56:39.574Z,44.95
2019-01-04T13:59:11.039Z,44.95
2019-01-04T14:01:42.111Z,45.63
2019-01-04T14:04:17.350Z,44.28
2019-01-04T14:06:49.223Z,47.69
2019-01-04T14:09:19.903Z,47.17
2019-01-04T14:11:52.072Z,47.17
2019-01-04T14:14:27.541Z,47.28
2019-01-04T14:16:59.766Z,47.54
2019-01-04T14:19:31.972Z,47.38
2019-01-04T14:22:02.594Z,47.40
2019-01-04T14:24:33.280Z,47.21
2019-01-04T14:27:08.103Z,48.90
2019-01-04T14:29:39.837Z,53.30
2019-01-04T14:32:13.988Z,53.30
2019-01-04T14:34:44.925Z,54.43
2019-01-04T14:37:20.046Z,54.43
2019-01-04T14:39:50.630Z,55.46
2019-01-04T14:42:22.890Z,54.93
2019-01-04T14:44:54.862Z,55.36
2019-01-04T14:47:26.303Z,55.39
2019-01-04T14:49:56.513Z,55.18
2019-01-04T14:52:30.390Z,54.72
2019-01-04T14:55:00.987Z,54.61
2019-01-04T14:57:32.093Z,54.48
2019-01-04T15:00:02.310Z,54.51
2019-01-04T15:02:36.736Z,53.52
2019-01-04T15:05:14.987Z,54.07
2019-01-04T15:07:46.255Z,53.04
2019-01-04T15:10:16.785Z,52.50
2019-01-04T15:12:49.171Z,51.36
2019-01-04T15:15:19.047Z,51.52
2019-01-04T15:17:50.353Z,50.60
2019-01-04T15:20:20.111Z,51.29
2019-01-04T15:22:50.948Z,51.31
2019-01-04T15:25:21.706Z,50.30
2019-01-04T15:27:53.123Z,49.51
2019-01-04T15:30:23.001Z,50.24
2019-01-04T15:32:53.167Z,48.96
2019-01-04T15:35:23.026Z,49.50
2019-01-04T15:37:55.839Z,48.99
2019-01-04T15:40:25.640Z,48.36
2019-01-04T15:42:55.488Z,48.56
2019-01-04T15:45:25.479Z,48.60
2019-01-04T15:47:55.292Z,49.09
2019-01-04T15:50:25.204Z,49.12
2019-01-04T15:52:55.455Z,48.69
2019-01-04T15:55:25.357Z,49.54
2019-01-04T15:57:55.267Z,49.90
2019-01-04T16:00:25.392Z,50.22
2019-01-04T16:03:00.113Z,50.64
2019-01-04T16:05:31.054Z,51.62
2019-01-04T16:08:01.072Z,51.88
2019-01-04T16:10:30.898Z,52.22
2019-01-04T16:13:00.914Z,52.52
2019-01-04T16:15:30.763Z,53.30
2019-01-04T16:18:02.078Z,54.02
2019-01-04T16:20:32.088Z,55.65
2019-01-04T16:23:02.413Z,56.27
2019-01-04T16:25:32.384Z,56.59
2019-01-04T16:28:02.369Z,58.75
2019-01-04T16:30:32.251Z,58.18
2019-01-04T16:33:02.068Z,58.37
2019-01-04T16:35:31.836Z,59.04
2019-01-04T16:38:01.695Z,59.70
2019-01-04T16:40:31.732Z,60.43
2019-01-04T16:43:01.678Z,60.95
2019-01-04T16:45:31.565Z,61.23
2019-01-04T16:48:01.471Z,61.49
2019-01-04T16:50:33.071Z,60.25
2019-01-04T16:53:03.047Z,60.58
2019-01-04T16:55:32.756Z,59.87
2019-01-04T16:58:04.378Z,59.77
2019-01-04T17:00:34.327Z,60.39
2019-01-04T17:03:04.342Z,59.51
2019-01-04T17:05:35.988Z,60.18
2019-01-04T17:08:06.437Z,60.80
2019-01-04T17:10:36.222Z,60.74
2019-01-04T17:13:06.021Z,59.89
2019-01-04T17:15:35.972Z,61.95
2019-01-04T17:18:05.791Z,59.99
2019-01-04T17:20:35.709Z,56.91
2019-01-04T17:23:05.463Z,54.97
2019-01-04T17:28:19.934Z,55.19
2019-01-04T17:30:51.795Z,56.93
2019-01-04T17:33:24.990Z,58.27
2019-01-04T17:35:58.785Z,60.37
2019-01-04T17:38:31.435Z,57.41
2019-01-04T17:41:06.252Z,58.38
2019-01-04T17:43:40.526Z,58.11
2019-01-04T17:46:12.428Z,55.61
2019-01-04T17:48:44.343Z,55.52
2019-01-04T17:51:16.688Z,52.56
2019-01-04T17:53:50.033Z,54.81
2019-01-04T17:56:20.136Z,55.10
2019-01-04T17:58:50.909Z,55.71
2019-01-04T18:01:22.386Z,56.17
2019-01-04T18:04:13.040Z,57.90
2019-01-04T18:06:56.924Z,58.39
2019-01-04T18:09:31.407Z,57.07
2019-01-04T18:12:05.664Z,56.29
2019-01-04T18:14:40.459Z,58.96
2019-01-04T18:17:16.017Z,60.51
2019-01-04T18:19:50.740Z,60.33
2019-01-04T18:22:27.296Z,60.87
2019-01-04T18:25:02.895Z,59.35
2019-01-04T18:27:38.330Z,59.08
2019-01-04T18:30:13.267Z,60.16
2019-01-04T18:32:46.700Z,59.73
2019-01-04T18:35:19.301Z,61.15
2019-01-04T18:37:56.216Z,62.69
2019-01-04T18:40:51.550Z,60.46
2019-01-04T18:43:25.597Z,61.70
2019-01-04T18:45:58.429Z,61.56
2019-01-04T18:48:29.774Z,63.60
2019-01-04T18:51:01.045Z,62.45
2019-01-04T18:53:32.609Z,62.28
2019-01-04T18:56:02.733Z,62.60
2019-01-04T18:58:32.644Z,63.06
2019-01-04T19:01:02.561Z,63.18
2019-01-04T19:03:33.783Z,63.16
2019-01-04T19:06:03.972Z,64.09
2019-01-04T19:08:33.999Z,62.71
2019-01-04T19:11:03.735Z,62.77
2019-01-04T19:13:33.537Z,64.48
2019-01-04T19:16:03.385Z,66.02
2019-01-04T19:18:33.720Z,66.42
2019-01-04T19:21:04.704Z,66.38
2019-01-04T19:23:39.527Z,67.68
2019-01-04T19:26:06.173Z,69.51
2019-01-04T19:28:35.933Z,69.14
2019-01-04T19:31:06.056Z,67.93
2019-01-04T19:33:38.965Z,67.90
2019-01-04T19:36:08.894Z,68.85
2019-01-04T19:38:38.668Z,68.79
2019-01-04T19:41:14.223Z,70.27
2019-01-04T19:43:45.184Z,71.79
2019-01-04T19:46:15.693Z,73.12
2019-01-04T19:48:46.284Z,73.34
2019-01-04T19:51:17.306Z,73.65
2019-01-04T19:53:49.094Z,73.27
2019-01-04T19:56:20.087Z,73.16
2019-01-04T19:58:50.322Z,72.32
2019-01-04T20:01:20.808Z,72.56
2019-01-04T20:03:54.871Z,72.81
2019-01-04T20:06:35.890Z,73.02
2019-01-04T20:09:50.491Z,73.66
2019-01-04T20:12:43.952Z,74.21
2019-01-04T20:15:30.680Z,72.73
2019-01-04T20:18:18.718Z,74.04
2019-01-04T20:21:06.787Z,74.77
2019-01-04T20:23:47.522Z,76.11
2019-01-04T20:26:31.007Z,77.14
2019-01-04T20:29:11.585Z,77.62
2019-01-04T20:31:43.074Z,76.68
2019-01-04T20:34:15.763Z,76.98
2019-01-04T20:36:57.679Z,79.29
2019-01-04T20:39:55.943Z,79.93
2019-01-04T20:42:41.013Z,79.46
2019-01-04T20:45:26.445Z,78.83
2019-01-04T20:48:13.150Z,79.71
2019-01-04T20:50:52.135Z,79.30
2019-01-04T20:53:28.743Z,81.45
2019-01-04T20:56:05.275Z,80.40
2019-01-04T20:58:54.034Z,80.31
2019-01-04T21:01:25.880Z,81.06
2019-01-04T21:03:57.271Z,81.54
2019-01-04T21:06:42.517Z,81.78
2019-01-04T21:09:17.871Z,81.68
2019-01-04T21:11:57.727Z,81.62
2019-01-04T21:14:35.381Z,81.75
2019-01-04T21:17:10.795Z,81.86
2019-01-04T21:19:43.872Z,81.61
2019-01-04T21:22:35.271Z,81.59
2019-01-04T21:25:17.383Z,80.92
2019-01-04T21:27:57.846Z,80.67
2019-01-04T21:30:45.435Z,80.23
2019-01-04T21:33:29.205Z,79.37
2019-01-04T21:36:01.139Z,79.38
2019-01-04T21:38:49.530Z,79.86
2019-01-04T21:41:33.164Z,80.31
2019-01-04T21:44:17.727Z,81.08
2019-01-04T21:46:51.306Z,81.02
2019-01-04T21:49:36.574Z,80.87
2019-01-04T21:52:20.245Z,80.69
2019-01-04T21:55:14.842Z,80.85
2019-01-04T21:58:06.576Z,80.11
2019-01-04T22:01:03.706Z,80.66
2019-01-04T22:03:45.341Z,81.98
2019-01-04T22:06:34.270Z,81.83
2019-01-04T22:09:07.603Z,81.43
2019-01-04T22:11:54.682Z,81.91
2019-01-04T22:14:43.533Z,82.16
2019-01-04T22:17:25.043Z,80.33
2019-01-04T22:20:00.283Z,78.93
2019-01-04T22:22:42.001Z,78.08
2019-01-04T22:25:14.736Z,78.54
2019-01-04T22:28:02.987Z,78.37
2019-01-04T22:30:47.884Z,78.20
2019-01-04T22:33:31.553Z,78.72
2019-01-04T22:36:11.747Z,79.10
2019-01-04T22:39:03.475Z,78.74
2019-01-04T22:41:45.192Z,74.48
2019-01-04T22:44:47.326Z,75.30
2019-01-04T22:47:30.387Z,73.84
2019-01-04T22:50:07.367Z,73.80
2019-01-04T22:52:51.879Z,76.23
2019-01-04T22:55:54.543Z,76.75
2019-01-04T22:58:35.072Z,73.49
2019-01-04T23:01:25.138Z,72.36
2019-01-04T23:04:15.134Z,72.55
2019-01-04T23:06:59.545Z,72.43
2019-01-04T23:09:48.761Z,72.39
2019-01-04T23:12:32.591Z,74.48
2019-01-04T23:15:11.530Z,74.92
2019-01-04T23:17:52.081Z,75.04
2019-01-04T23:20:40.428Z,75.80
2019-01-04T23:23:14.831Z,75.44
2019-01-04T23:26:05.861Z,75.96
2019-01-04T23:28:54.639Z,76.61
2019-01-04T23:31:31.990Z,75.57
2019-01-04T23:34:08.501Z,76.48
2019-01-04T23:36:45.934Z,76.41
2019-01-04T23:39:21.460Z,76.56
2019-01-04T23:42:09.249Z,77.31
2019-01-04T23:44:41.355Z,77.29
2019-01-04T23:47:19.088Z,77.18
2019-01-04T23:50:06.767Z,76.64
2019-01-04T23:52:45.686Z,77.09
2019-01-04T23:55:20.747Z,76.23
2019-01-04T23:57:52.202Z,74.25
